Shocks Mills, Pennsylvania
Current Conditions -  °F | °C
As of 3:56 AM on Thursday 23 Oct 2014 (Local Time) from KMDT Reporting Station
Overcast Overcast  
Wind Chill: 53°   Ceiling: 2900
Heat Index: 53°   Visibility: 10mi
Dew Point: 42°   Wind: 15mph
Humidity: 66%   Direction: 350°N
Pressure: 29.87"   Gusts: 23mph
Location:  40.0731°N, 76.571°W
Report Text: KMDT 230756Z 35013G20KT 10SM BKN029 OVC060 12/06 A2987 RMK AO2 RAB19E39 SLP115 P0000 T01170056
Loading
Personal Weather Stations






























Interactive Weather Map
Tropical Storm Tracking
New forecast layout! Learn more

10-Day Weather Forecast

Advertisements
Track Severe Weather on mobile